• Join FlightAware (Why Join?)
  • Login
  • US Flag 
02:01AM EDT


 

Airport Tracker/Info


-or-


 

Live Flight TrackerFlight Track Log ✈ N349CD ✈ 25-Mar-2014 ✈ KOCF - KORL

Flight Track Log - Related Links

Times and Time Zones

All times are in EDT time to prevent confusion due to time zone crossing. See the N349CD flight status page for this flight to view local times or setup timezone preferences in your user account.

Time Position Orientation Groundspeed Altitude Reporting Facility
EDT Latitude Longitude Course Direction KTS MPH feet Rate Location/Type
02:21PM 29.1492 -82.1008 131° Southeast 151 174 2,200  Level Jacksonville Center
02:22PM 29.1364 -82.0511 106° East 159 183 2,800 480 Climbing Jacksonville Center
02:23PM 29.1236 -82.0058 108° East 161 185 3,200 480 Climbing Jacksonville Center
02:24PM 29.1108 -81.9586 107° East 148 170 3,800 540 Climbing Jacksonville Center
02:25PM 29.1000 -81.9111 105° East 147 169 4,400 480 Climbing Jacksonville Center
02:26PM 29.0413 -82.0368 131° Southeast  Level Estimated
02:26PM 29.0850 -81.8661 111° Southeast 149 171 4,800  Level Jacksonville Center
02:27PM 29.0761 -81.8186 102° East 148 170 5,100 60 Climbing Jacksonville Center
02:28PM 29.0611 -81.7689 109° East 161 185 5,000 -60 Descending Jacksonville Center
02:29PM 29.0339 -81.7361 134° Southeast 151 174 5,000  Level Jacksonville Center
02:30PM 29.0003 -81.7103 146° Southeast 141 162 5,100 -120 Climbing Jacksonville Center
02:32PM 28.9167 -81.6333 141° Southeast 155 178 4,600 -300 Descending Orlando TRACON
02:33PM 28.8833 -81.6000 139° Southeast 164 189 4,100 -840 Descending Orlando TRACON
02:34PM 28.8500 -81.5667 139° Southeast 170 196 3,000 -780 Descending Orlando TRACON
02:35PM 28.8167 -81.5333 139° Southeast 176 203 2,600 -300 Descending Orlando TRACON
02:36PM 28.7833 -81.5000 139° Southeast 159 183 2,500  Descending Orlando TRACON
02:37PM 28.7333 -81.4667 150° Southeast 161 185 2,600  Climbing Orlando TRACON
02:38PM 28.7000 -81.4333 139° Southeast 156 180 2,600 -60 Level Orlando TRACON
02:39PM 28.6667 -81.4000 139° Southeast 164 189 2,500 -420 Descending Orlando TRACON
02:40PM 28.6333 -81.3667 139° Southeast 180 207 1,800 -600 Descending Orlando TRACON
02:41PM 28.6000 -81.3333 139° Southeast 170 196 1,400 -420 Descending Orlando TRACON
02:42PM 28.5667 -81.3000 139° Southeast 142 163 1,000 -420 Descending Orlando TRACON
02:43PM 28.5500 -81.3167 221° Southwest 78 90 600 -420 Descending Orlando TRACON
02:45PM 28.5333 -81.3167 142° Southeast  Level FlightAware Approximate
02:52PM 28.5455 -81.3329 310° West  Level Estimated
02:53PM 28.5455 -81.3329 142° Southeast  Level Estimated